Time;durP1;ratioP1;P1;durP2;ratioP2;P2;SDS_P1;SDS_P2;PMS_P1;PMS_P2;Temp;Humidity;BMP_temperature;BMP_pressure;BME280_temperature;BME280_humidity;BME280_pressure;Samples;Min_cycle;Max_cycle;Signal;HPM_P1;HPM_P2
2023/02/11 00:00:57;;;;;;;;;;;;;;;26.44;21.29;102716.13;5077948;28;1122;-22
2023/02/11 00:03:22;;;;;;;;;;;;;;;26.22;21.33;102723.31;5077931;28;1146;-22
2023/02/11 00:05:57;;;;;;;;;;;;;;;26.47;20.51;102731.19;5077415;28;977;-24
2023/02/11 00:08:23;;;;;;;;;;;;;;;26.35;21.42;102728.56;5077508;28;1144;-24
2023/02/11 00:10:54;;;;;;;;;;;;;;;25.97;21.86;102727.19;5077302;28;1902;-22
2023/02/11 00:13:20;;;;;;;;;;;;;;;25.92;21.41;102727.59;5077365;28;1074;-22
2023/02/11 00:15:45;;;;;;;;;;;;;;;25.87;21.78;102730.66;5076842;28;1107;-22
2023/02/11 00:18:10;;;;;;;;;;;;;;;25.67;21.22;102722.34;5076995;28;1059;-23
2023/02/11 00:20:37;;;;;;;;;;;;;;;27.56;19.57;102734.50;5077259;28;1171;-24
2023/02/11 00:23:02;;;;;;;;;;;;;;;27.06;19.45;102723.50;5076985;28;2493;-27
2023/02/11 00:25:28;;;;;;;;;;;;;;;26.15;19.63;102714.88;5077006;28;1074;-24
2023/02/11 00:27:53;;;;;;;;;;;;;;;25.38;21.36;102720.16;5077040;28;1227;-24
2023/02/11 00:30:18;;;;;;;;;;;;;;;25.47;21.63;102705.09;5076273;28;1087;-24
2023/02/11 00:32:44;;;;;;;;;;;;;;;26.37;19.84;102706.84;5076472;28;1898;-24
2023/02/11 00:35:09;;;;;;;;;;;;;;;27.24;18.86;102712.91;5076554;28;1028;-24
2023/02/11 00:37:35;;;;;;;;;;;;;;;26.52;20.00;102712.78;5077166;28;1154;-23
2023/02/11 00:40:01;;;;;;;;;;;;;;;26.78;18.69;102715.06;5076073;28;1035;-24
2023/02/11 00:42:26;;;;;;;;;;;;;;;26.22;18.85;102711.66;5076779;28;1086;-24
2023/02/11 00:44:51;;;;;;;;;;;;;;;25.79;19.49;102709.69;5076394;28;1098;-24
2023/02/11 00:47:17;;;;;;;;;;;;;;;27.80;17.63;102707.13;5076671;28;1171;-22
2023/02/11 00:49:42;;;;;;;;;;;;;;;26.20;19.48;102705.53;5076516;28;1191;-22
2023/02/11 00:52:07;;;;;;;;;;;;;;;26.30;19.54;102711.88;5075641;28;2315;-24
2023/02/11 00:54:32;;;;;;;;;;;;;;;26.35;19.92;102708.81;5076315;28;1090;-24
2023/02/11 00:56:58;;;;;;;;;;;;;;;26.72;19.34;102710.22;5076411;28;1024;-24
2023/02/11 00:59:23;;;;;;;;;;;;;;;26.37;18.59;102696.91;5076494;28;1291;-24
2023/02/11 01:01:48;;;;;;;;;;;;;;;25.84;19.98;102697.69;5076160;28;1131;-22
2023/02/11 01:04:13;;;;;;;;;;;;;;;26.10;19.71;102697.34;5076322;28;1125;-22
2023/02/11 01:06:39;;;;;;;;;;;;;;;26.21;19.81;102697.31;5076412;28;1052;-22
2023/02/11 01:09:04;;;;;;;;;;;;;;;26.13;20.41;102694.41;5075738;28;1195;-22
2023/02/11 01:11:29;;;;;;;;;;;;;;;25.91;21.02;102691.66;5075857;28;1905;-22
2023/02/11 01:13:54;;;;;;;;;;;;;;;26.18;20.58;102692.16;5075969;28;1088;-23
2023/02/11 01:16:20;;;;;;;;;;;;;;;26.61;19.61;102694.94;5075985;28;1127;-22
2023/02/11 01:18:45;;;;;;;;;;;;;;;26.50;19.18;102687.75;5057956;28;1107;-22
2023/02/11 01:21:10;;;;;;;;;;;;;;;26.15;20.71;102682.50;5075876;28;1186;-23
2023/02/11 01:23:36;;;;;;;;;;;;;;;25.79;20.78;102676.53;5070988;28;2487;-23
2023/02/11 01:26:01;;;;;;;;;;;;;;;25.75;20.59;102673.22;5076054;28;1000;-23
2023/02/11 01:28:27;;;;;;;;;;;;;;;25.84;20.56;102676.97;5074971;28;1012;-23
2023/02/11 01:30:52;;;;;;;;;;;;;;;26.44;20.41;102672.09;5075961;28;1957;-22
2023/02/11 01:33:17;;;;;;;;;;;;;;;26.17;20.12;102671.59;5062923;28;1020;-23
2023/02/11 01:35:43;;;;;;;;;;;;;;;26.72;20.27;102670.56;5075777;28;1212;-22
2023/02/11 01:38:13;;;;;;;;;;;;;;;26.92;19.36;102659.88;5075767;28;1020;-22
2023/02/11 01:40:38;;;;;;;;;;;;;;;26.32;20.48;102671.28;5075752;28;1202;-23
2023/02/11 01:43:03;;;;;;;;;;;;;;;26.62;19.96;102670.53;5074936;28;1059;-22
2023/02/11 01:45:38;;;;;;;;;;;;;;;26.58;18.61;102662.78;5075991;28;1186;-22
2023/02/11 01:48:03;;;;;;;;;;;;;;;26.17;20.04;102668.91;5075252;28;1016;-22
2023/02/11 01:50:28;;;;;;;;;;;;;;;25.84;20.36;102660.78;5075640;28;1249;-23
2023/02/11 01:57:20;;;;;;;;;;;;;;;25.89;20.19;102660.44;5075452;28;2682;-23
2023/02/11 01:58:23;;;;;;;;;;;;;;;25.93;20.18;102667.25;5075343;28;1000;-23
2023/02/11 02:00:48;;;;;;;;;;;;;;;28.13;18.44;102666.25;5075687;28;1019;-23
2023/02/11 02:03:14;;;;;;;;;;;;;;;27.31;17.80;102669.16;5075597;28;1019;-23
2023/02/11 02:05:58;;;;;;;;;;;;;;;26.87;18.32;102656.72;5064350;28;968;-23
2023/02/11 02:08:32;;;;;;;;;;;;;;;26.91;19.70;102666.25;5074745;28;1083;-23
2023/02/11 02:10:59;;;;;;;;;;;;;;;26.64;20.36;102667.69;5075377;28;1961;-22
2023/02/11 02:13:25;;;;;;;;;;;;;;;25.86;21.06;102666.09;5075349;28;1136;-23
2023/02/11 02:15:53;;;;;;;;;;;;;;;26.76;20.60;102668.44;5075469;28;1178;-23
2023/02/11 02:18:31;;;;;;;;;;;;;;;27.60;19.54;102671.03;5075448;28;862;-23
2023/02/11 02:21:15;;;;;;;;;;;;;;;28.14;18.95;102673.41;5062448;28;1076;-23
2023/02/11 02:23:43;;;;;;;;;;;;;;;27.42;18.61;102678.97;5074667;28;2533;-22
2023/02/11 02:26:14;;;;;;;;;;;;;;;27.01;18.18;102677.09;5075368;28;1110;-22
2023/02/11 02:28:54;;;;;;;;;;;;;;;26.19;20.72;102680.41;5075284;28;1249;-23
2023/02/11 02:31:29;;;;;;;;;;;;;;;26.08;20.85;102666.97;5067940;28;1906;-22
2023/02/11 02:33:55;;;;;;;;;;;;;;;26.01;20.74;102677.41;5063834;28;1027;-22
2023/02/11 02:36:32;;;;;;;;;;;;;;;26.01;21.32;102680.97;5060727;28;1087;-23
2023/02/11 02:39:01;;;;;;;;;;;;;;;27.83;19.40;102676.22;5078926;28;1047;-22
2023/02/11 02:41:31;;;;;;;;;;;;;;;28.62;18.70;102683.47;5060801;28;1021;-23
2023/02/11 02:43:56;;;;;;;;;;;;;;;27.46;18.26;102681.25;5078651;28;1084;-23
2023/02/11 02:46:25;;;;;;;;;;;;;;;26.68;19.50;102676.34;5079649;28;1126;-24
2023/02/11 02:48:54;;;;;;;;;;;;;;;25.97;21.21;102681.34;5079016;28;1084;-22
2023/02/11 02:51:38;;;;;;;;;;;;;;;25.73;21.51;102677.88;5078549;28;1914;-24
2023/02/11 02:54:22;;;;;;;;;;;;;;;25.84;21.55;102685.06;5078440;28;1143;-23
2023/02/11 02:56:50;;;;;;;;;;;;;;;25.84;21.63;102689.63;5078896;28;1055;-23
2023/02/11 02:59:34;;;;;;;;;;;;;;;27.79;19.83;102691.03;5078773;28;1126;-22
2023/02/11 03:02:02;;;;;;;;;;;;;;;26.34;20.86;102682.81;5078719;28;1109;-23
2023/02/11 03:04:41;;;;;;;;;;;;;;;26.24;20.77;102674.63;5078473;28;1112;-22
2023/02/11 03:07:06;;;;;;;;;;;;;;;26.66;19.00;102679.19;5078117;28;1186;-22
2023/02/11 03:09:52;;;;;;;;;;;;;;;26.38;20.31;102671.63;5078388;28;1004;-24
2023/02/11 03:12:17;;;;;;;;;;;;;;;26.15;21.06;102679.81;5077725;28;1894;-22
2023/02/11 03:14:42;;;;;;;;;;;;;;;25.85;21.65;102675.13;5078617;28;1035;-23
2023/02/11 03:17:08;;;;;;;;;;;;;;;25.95;21.64;102680.63;5060456;28;1171;-23
2023/02/11 03:19:34;;;;;;;;;;;;;;;25.79;21.61;102679.22;5060444;28;1136;-22
2023/02/11 03:21:59;;;;;;;;;;;;;;;25.92;21.54;102679.88;5072730;28;2351;-22
2023/02/11 03:24:27;;;;;;;;;;;;;;;26.10;20.90;102683.88;5054825;28;1095;-23
2023/02/11 03:26:52;;;;;;;;;;;;;;;26.43;19.70;102684.72;5060191;28;1067;-22
2023/02/11 03:29:21;;;;;;;;;;;;;;;25.82;21.37;102675.41;5059893;28;1103;-23
2023/02/11 03:32:05;;;;;;;;;;;;;;;26.31;21.07;102680.34;5077813;28;1905;-23
2023/02/11 03:34:47;;;;;;;;;;;;;;;26.25;21.03;102673.63;5077919;28;1024;-22
2023/02/11 03:37:15;;;;;;;;;;;;;;;26.01;21.00;102677.41;5059979;28;1146;-22
2023/02/11 03:39:45;;;;;;;;;;;;;;;26.87;20.21;102678.31;5077923;28;1055;-23
2023/02/11 03:42:10;;;;;;;;;;;;;;;26.23;21.09;102675.59;5059806;28;1111;-23
2023/02/11 03:44:37;;;;;;;;;;;;;;;26.20;21.18;102673.16;5059690;28;1136;-22
2023/02/11 03:47:02;;;;;;;;;;;;;;;26.68;19.33;102679.91;5060416;28;1136;-23
2023/02/11 03:49:28;;;;;;;;;;;;;;;26.62;19.01;102677.75;5078198;28;1077;-22
2023/02/11 03:51:53;;;;;;;;;;;;;;;25.74;21.53;102668.78;5059492;28;2430;-22
2023/02/11 03:54:20;;;;;;;;;;;;;;;27.30;20.04;102668.28;5059316;28;1164;-23
2023/02/11 03:56:51;;;;;;;;;;;;;;;27.74;19.51;102678.78;5078087;28;1206;-23
2023/02/11 03:59:16;;;;;;;;;;;;;;;28.10;19.26;102677.38;5064833;28;1465;-22
2023/02/11 04:01:41;;;;;;;;;;;;;;;28.28;19.04;102680.22;5077580;28;1115;-23
2023/02/11 04:04:07;;;;;;;;;;;;;;;27.21;20.08;102674.53;5077079;28;1031;-23
2023/02/11 04:06:32;;;;;;;;;;;;;;;27.01;19.47;102666.28;5077282;28;1100;-23
2023/02/11 04:08:57;;;;;;;;;;;;;;;26.33;19.55;102667.59;5077706;28;930;-22
2023/02/11 04:11:23;;;;;;;;;;;;;;;25.60;21.31;102655.56;5077556;28;1914;-23
2023/02/11 04:13:48;;;;;;;;;;;;;;;25.26;21.74;102654.66;5077741;28;1127;-23
2023/02/11 04:16:13;;;;;;;;;;;;;;;25.54;21.13;102657.78;5077112;28;1092;-22
2023/02/11 04:18:38;;;;;;;;;;;;;;;26.24;20.09;102661.13;5077005;28;846;-22
2023/02/11 04:21:04;;;;;;;;;;;;;;;26.99;19.55;102661.03;5077415;28;1126;-22
2023/02/11 04:23:29;;;;;;;;;;;;;;;27.61;18.64;102660.09;5076303;28;2458;-23
2023/02/11 04:25:54;;;;;;;;;;;;;;;26.03;19.96;102657.44;5077362;28;1043;-22
2023/02/11 04:28:20;;;;;;;;;;;;;;;26.89;19.44;102652.88;5077084;28;1035;-22
2023/02/11 04:30:45;;;;;;;;;;;;;;;27.70;19.58;102654.88;5067408;28;1971;-22
2023/02/11 04:33:10;;;;;;;;;;;;;;;27.01;19.66;102650.06;5076304;28;1186;-22
2023/02/11 04:35:35;;;;;;;;;;;;;;;26.14;20.75;102643.03;5076729;28;1023;-22
2023/02/11 04:38:01;;;;;;;;;;;;;;;25.43;22.26;102644.34;5076039;28;1075;-22
2023/02/11 04:40:26;;;;;;;;;;;;;;;25.41;22.53;102643.59;5076937;28;1206;-23
2023/02/11 04:42:51;;;;;;;;;;;;;;;25.38;23.08;102641.16;5076318;28;1091;-25
2023/02/11 04:45:17;;;;;;;;;;;;;;;25.44;22.59;102643.38;5076583;28;1083;-23
2023/02/11 04:47:42;;;;;;;;;;;;;;;26.85;21.38;102647.88;5076727;28;1143;-22
2023/02/11 04:50:07;;;;;;;;;;;;;;;25.52;16.72;102638.22;5076400;28;1068;-23
2023/02/11 04:52:33;;;;;;;;;;;;;;;22.65;15.71;102628.13;5075993;28;2387;-23
2023/02/11 04:54:58;;;;;;;;;;;;;;;22.00;17.22;102633.31;5076021;28;1496;-24
2023/02/11 04:57:23;;;;;;;;;;;;;;;25.45;18.43;102634.28;5075754;28;1158;-25
2023/02/11 04:59:48;;;;;;;;;;;;;;;26.64;18.08;102643.41;5076430;28;1036;-28
2023/02/11 05:02:14;;;;;;;;;;;;;;;26.62;18.33;102640.81;5076464;28;1076;-25
2023/02/11 05:04:39;;;;;;;;;;;;;;;26.61;18.57;102640.97;5076238;28;1115;-25
2023/02/11 05:07:04;;;;;;;;;;;;;;;26.81;18.62;102641.91;5075887;28;1086;-26
2023/02/11 05:09:29;;;;;;;;;;;;;;;26.92;18.61;102638.25;5076028;28;1106;-30
2023/02/11 05:11:55;;;;;;;;;;;;;;;26.61;18.85;102635.56;5076115;28;1898;-26
2023/02/11 05:14:20;;;;;;;;;;;;;;;27.03;18.42;102642.72;5075869;28;1019;-25
2023/02/11 05:16:45;;;;;;;;;;;;;;;25.95;19.28;102640.16;5075745;28;1174;-26
2023/02/11 05:19:11;;;;;;;;;;;;;;;26.46;18.86;102635.88;5075654;28;1086;-29
2023/02/11 05:21:36;;;;;;;;;;;;;;;27.18;18.26;102636.94;5075675;28;1781;-26
2023/02/11 05:24:01;;;;;;;;;;;;;;;27.24;17.83;102628.31;5076274;28;1080;-30
2023/02/11 05:26:26;;;;;;;;;;;;;;;25.60;18.86;102631.31;5075797;28;1059;-29
2023/02/11 05:28:52;;;;;;;;;;;;;;;24.95;18.14;102635.56;5076016;28;1083;-26
2023/02/11 05:31:17;;;;;;;;;;;;;;;25.49;20.40;102634.91;5075246;28;1886;-28
2023/02/11 05:33:42;;;;;;;;;;;;;;;26.56;19.10;102632.41;5075688;28;1023;-33
2023/02/11 05:36:08;;;;;;;;;;;;;;;26.35;18.84;102639.53;5075557;28;1066;-24
2023/02/11 05:38:34;;;;;;;;;;;;;;;25.73;19.51;102636.56;5075883;28;1126;-27
2023/02/11 05:40:59;;;;;;;;;;;;;;;25.15;20.45;102628.59;5075260;28;999;-24
2023/02/11 05:43:24;;;;;;;;;;;;;;;25.10;21.34;102635.31;5075885;28;1034;-31
2023/02/11 05:45:50;;;;;;;;;;;;;;;25.19;22.01;102638.13;5075814;28;1151;-30
2023/02/11 05:48:15;;;;;;;;;;;;;;;25.92;21.60;102642.13;5075510;28;1040;-29
2023/02/11 05:50:40;;;;;;;;;;;;;;;26.39;20.73;102646.34;5062188;28;1959;-30
2023/02/11 05:53:06;;;;;;;;;;;;;;;27.07;20.34;102646.03;5075938;28;2672;-30
2023/02/11 05:55:31;;;;;;;;;;;;;;;27.25;19.96;102649.78;5075540;28;1113;-30
2023/02/11 05:57:57;;;;;;;;;;;;;;;27.04;19.91;102652.56;5075610;28;1111;-31
2023/02/11 06:00:22;;;;;;;;;;;;;;;26.75;19.08;102640.59;5075718;28;1119;-30
2023/02/11 06:02:47;;;;;;;;;;;;;;;26.72;19.34;102650.81;5075369;28;1028;-32
2023/02/11 06:05:12;;;;;;;;;;;;;;;27.81;18.91;102649.31;5075316;28;1178;-30
2023/02/11 06:07:38;;;;;;;;;;;;;;;27.74;18.34;102650.91;5076473;28;896;-30
2023/02/11 06:10:03;;;;;;;;;;;;;;;28.39;17.39;102652.19;5079348;28;1031;-30
2023/02/11 06:12:29;;;;;;;;;;;;;;;27.50;18.67;102660.22;5079433;28;1914;-28
2023/02/11 06:14:54;;;;;;;;;;;;;;;26.17;19.92;102650.00;5079616;28;1119;-28
2023/02/11 06:17:19;;;;;;;;;;;;;;;26.21;19.76;102648.75;5078858;28;1135;-26
2023/02/11 06:19:44;;;;;;;;;;;;;;;26.83;18.93;102648.03;5078693;28;987;-28
2023/02/11 06:22:10;;;;;;;;;;;;;;;25.85;20.41;102646.34;5071910;28;1905;-30
2023/02/11 06:24:36;;;;;;;;;;;;;;;27.40;19.19;102654.78;5075498;28;1172;-27
2023/02/11 06:27:02;;;;;;;;;;;;;;;28.00;18.04;102650.34;5079320;28;1030;-26
2023/02/11 06:29:27;;;;;;;;;;;;;;;26.36;19.83;102652.00;5079023;28;1043;-29
2023/02/11 06:31:53;;;;;;;;;;;;;;;26.15;20.14;102652.84;5078855;28;1902;-29
2023/02/11 06:34:18;;;;;;;;;;;;;;;27.00;19.61;102643.84;5078757;28;976;-27
2023/02/11 06:36:44;;;;;;;;;;;;;;;27.63;18.53;102647.31;5079324;28;1210;-29
2023/02/11 06:39:09;;;;;;;;;;;;;;;27.33;18.77;102642.81;5079119;28;1182;-27
2023/02/11 06:41:34;;;;;;;;;;;;;;;26.29;20.00;102640.84;5061315;28;1094;-29
2023/02/11 06:44:00;;;;;;;;;;;;;;;26.02;20.56;102635.97;5078670;28;1154;-28
2023/02/11 06:46:25;;;;;;;;;;;;;;;25.92;20.57;102638.59;5079163;28;1147;-29
2023/02/11 06:48:50;;;;;;;;;;;;;;;26.13;20.25;102635.94;5078827;28;973;-27
2023/02/11 06:51:15;;;;;;;;;;;;;;;26.26;20.29;102640.25;5078489;28;1910;-28
2023/02/11 06:53:42;;;;;;;;;;;;;;;26.26;20.40;102638.44;5073148;28;999;-27
2023/02/11 06:56:08;;;;;;;;;;;;;;;26.79;19.22;102641.19;5078945;28;911;-27
2023/02/11 06:58:33;;;;;;;;;;;;;;;27.16;18.73;102641.66;5078389;28;1094;-28
2023/02/11 07:00:59;;;;;;;;;;;;;;;26.31;20.08;102639.91;5079059;28;1182;-28
2023/02/11 07:03:24;;;;;;;;;;;;;;;26.12;20.39;102646.84;5078486;28;1091;-29
2023/02/11 07:05:50;;;;;;;;;;;;;;;26.26;20.41;102640.25;5078880;28;1206;-27
2023/02/11 07:08:15;;;;;;;;;;;;;;;26.33;20.30;102637.94;5078447;28;1068;-30
2023/02/11 07:10:40;;;;;;;;;;;;;;;27.39;18.86;102634.19;5078616;28;1023;-33
2023/02/11 07:13:06;;;;;;;;;;;;;;;27.52;18.37;102644.72;5078469;28;1967;-30
2023/02/11 07:15:31;;;;;;;;;;;;;;;27.37;18.79;102633.47;5078584;28;1119;-27
2023/02/11 07:17:56;;;;;;;;;;;;;;;25.97;20.50;102630.97;5078190;28;1063;-27
2023/02/11 07:20:21;;;;;;;;;;;;;;;26.19;20.61;102629.16;5077409;28;855;-33
2023/02/11 07:22:47;;;;;;;;;;;;;;;27.02;19.59;102638.34;5077896;28;2316;-28
2023/02/11 07:25:12;;;;;;;;;;;;;;;27.05;19.63;102629.97;5078508;28;1202;-27
2023/02/11 07:27:37;;;;;;;;;;;;;;;27.36;18.68;102627.19;5078105;28;1174;-28
2023/02/11 07:30:03;;;;;;;;;;;;;;;27.70;18.56;102623.28;5078321;28;1090;-31
2023/02/11 07:32:28;;;;;;;;;;;;;;;27.78;18.25;102621.75;5077884;28;1889;-27
2023/02/11 07:34:53;;;;;;;;;;;;;;;27.85;18.48;102621.03;5078051;28;1154;-30
2023/02/11 07:37:19;;;;;;;;;;;;;;;26.30;20.29;102609.34;5077826;28;1078;-29
2023/02/11 07:39:44;;;;;;;;;;;;;;;26.26;20.52;102611.44;5078019;28;1102;-26
2023/02/11 07:42:09;;;;;;;;;;;;;;;26.24;20.51;102609.88;5078196;28;1237;-29
2023/02/11 07:44:35;;;;;;;;;;;;;;;26.29;20.38;102613.03;5077817;28;913;-27
2023/02/11 07:47:01;;;;;;;;;;;;;;;26.38;20.11;102604.19;5077922;28;1138;-29
2023/02/11 07:49:26;;;;;;;;;;;;;;;27.38;18.95;102605.44;5078120;28;1211;-29
2023/02/11 07:51:52;;;;;;;;;;;;;;;27.28;19.13;102602.72;5072342;28;2430;-28
2023/02/11 07:54:17;;;;;;;;;;;;;;;26.76;19.86;102599.09;5077633;28;1152;-29
2023/02/11 07:56:42;;;;;;;;;;;;;;;27.17;19.48;102595.59;5077529;28;1095;-27
2023/02/11 07:59:08;;;;;;;;;;;;;;;26.53;20.12;102593.03;5076728;28;1063;-31
2023/02/11 08:01:33;;;;;;;;;;;;;;;27.53;19.35;102596.94;5077415;28;1004;-27
2023/02/11 08:03:59;;;;;;;;;;;;;;;27.97;18.25;102588.41;5077298;28;1080;-28
2023/02/11 08:06:25;;;;;;;;;;;;;;;27.91;18.43;102586.28;5077801;28;1174;-29
2023/02/11 08:08:50;;;;;;;;;;;;;;;28.20;18.25;102579.97;5076714;28;1020;-29
2023/02/11 08:11:22;;;;;;;;;;;;;;;28.12;18.10;102580.69;5077419;28;1972;-27
2023/02/11 08:13:48;;;;;;;;;;;;;;;27.69;18.47;102575.63;5063967;28;999;-27
2023/02/11 08:16:20;;;;;;;;;;;;;;;26.93;19.67;102571.59;5077184;28;1110;-27
2023/02/11 08:18:45;;;;;;;;;;;;;;;27.51;19.11;102579.00;5064722;28;1075;-29
2023/02/11 08:21:10;;;;;;;;;;;;;;;28.32;18.66;102572.53;5076719;28;858;-29
2023/02/11 08:23:36;;;;;;;;;;;;;;;28.50;18.36;102577.19;5077142;28;2621;-32
2023/02/11 08:26:05;;;;;;;;;;;;;;;26.80;19.39;102571.84;5076718;28;1461;-29
2023/02/11 08:28:31;;;;;;;;;;;;;;;27.71;18.63;102578.19;5077026;28;1031;-29
2023/02/11 08:30:56;;;;;;;;;;;;;;;27.92;18.15;102563.63;5076068;28;1898;-28
2023/02/11 08:33:21;;;;;;;;;;;;;;;27.00;19.42;102560.13;5076777;28;860;-28
2023/02/11 08:35:47;;;;;;;;;;;;;;;27.42;19.27;102554.66;5076719;28;1023;-31
2023/02/11 08:38:12;;;;;;;;;;;;;;;27.06;19.53;102555.19;5076840;28;1131;-30
2023/02/11 08:40:37;;;;;;;;;;;;;;;27.81;18.61;102554.69;5063474;28;1193;-28
2023/02/11 08:43:03;;;;;;;;;;;;;;;27.99;18.08;102543.97;5076784;28;1051;-32
2023/02/11 08:45:28;;;;;;;;;;;;;;;27.59;18.67;102550.41;5075923;28;889;-28
2023/02/11 08:47:53;;;;;;;;;;;;;;;26.28;20.52;102546.56;5076547;28;1071;-30
2023/02/11 08:50:18;;;;;;;;;;;;;;;28.34;18.54;102544.34;5076558;28;1151;-28
2023/02/11 08:52:44;;;;;;;;;;;;;;;27.52;19.26;102542.00;5076192;28;2501;-26
2023/02/11 08:55:09;;;;;;;;;;;;;;;27.04;19.75;102539.13;5076493;28;1039;-28
2023/02/11 08:57:34;;;;;;;;;;;;;;;27.85;18.79;102539.03;5075745;28;1098;-27
2023/02/11 09:00:00;;;;;;;;;;;;;;;28.13;18.47;102522.88;5076132;28;1107;-29
2023/02/11 09:02:25;;;;;;;;;;;;;;;27.38;19.38;102522.50;5076619;28;1146;-30
2023/02/11 09:04:50;;;;;;;;;;;;;;;28.20;18.47;102520.44;5076232;28;1111;-27
2023/02/11 09:07:16;;;;;;;;;;;;;;;26.56;20.13;102513.66;5075549;28;1008;-33
2023/02/11 09:09:41;;;;;;;;;;;;;;;27.67;18.75;102518.09;5073205;28;870;-33
2023/02/11 09:12:06;;;;;;;;;;;;;;;28.16;18.44;102513.63;5076155;28;1897;-36
2023/02/11 09:14:31;;;;;;;;;;;;;;;27.79;18.48;102504.47;5075852;28;1000;-29
2023/02/11 09:16:57;;;;;;;;;;;;;;;28.18;18.95;102500.78;5075948;28;1144;-29
2023/02/11 09:19:22;;;;;;;;;;;;;;;28.92;18.04;102505.44;5076348;28;1098;-34
2023/02/11 09:21:47;;;;;;;;;;;;;;;28.19;18.44;102497.09;5070727;28;1741;-32
2023/02/11 09:24:13;;;;;;;;;;;;;;;28.04;18.43;102497.56;5068378;28;1128;-31
2023/02/11 09:26:39;;;;;;;;;;;;;;;26.59;20.19;102494.47;5075916;28;1350;-29
2023/02/11 09:29:05;;;;;;;;;;;;;;;27.51;19.11;102499.75;5075787;28;1004;-29
2023/02/11 09:31:30;;;;;;;;;;;;;;;28.04;18.52;102494.00;5075779;28;1898;-36
2023/02/11 09:33:56;;;;;;;;;;;;;;;28.61;17.42;102484.97;5075487;28;869;-33
2023/02/11 09:36:29;;;;;;;;;;;;;;;28.82;16.52;102483.84;5075984;28;1106;-30
2023/02/11 09:38:54;;;;;;;;;;;;;;;27.06;17.67;102476.84;5062809;28;1108;-33
2023/02/11 09:41:24;;;;;;;;;;;;;;;26.63;18.30;102474.31;5076321;28;999;-32
2023/02/11 09:43:53;;;;;;;;;;;;;;;27.54;18.09;102460.78;5074840;28;1090;-33
2023/02/11 09:46:19;;;;;;;;;;;;;;;28.56;17.22;102474.56;5057762;28;918;-33
2023/02/11 09:48:44;;;;;;;;;;;;;;;27.92;17.95;102460.88;5057523;28;1040;-28
2023/02/11 09:51:13;;;;;;;;;;;;;;;27.98;17.44;102460.25;5075286;28;1965;-34
2023/02/11 09:53:40;;;;;;;;;;;;;;;26.56;19.54;102460.50;5070786;28;2654;-31
2023/02/11 09:56:12;;;;;;;;;;;;;;;26.31;19.67;102456.44;5058158;28;1198;-31
2023/02/11 09:58:38;;;;;;;;;;;;;;;28.07;18.26;102451.28;5070904;28;972;-29
2023/02/11 10:01:22;;;;;;;;;;;;;;;27.84;17.93;102445.38;5070126;28;1262;-35
2023/02/11 10:03:48;;;;;;;;;;;;;;;27.77;18.29;102441.53;5073569;28;1136;-32
2023/02/11 10:06:13;;;;;;;;;;;;;;;27.82;18.53;102437.41;5075716;28;1100;-31
2023/02/11 10:08:48;;;;;;;;;;;;;;;28.47;17.67;102427.63;5075249;28;1132;-36
2023/02/11 10:11:20;;;;;;;;;;;;;;;28.55;17.80;102431.41;5075864;28;1980;-35
2023/02/11 10:13:52;;;;;;;;;;;;;;;27.88;18.24;102422.44;5057143;28;1024;-34
2023/02/11 10:16:23;;;;;;;;;;;;;;;27.58;18.63;102419.78;5057252;28;988;-33
2023/02/11 10:18:55;;;;;;;;;;;;;;;27.30;19.46;102414.28;5057632;28;1064;-30
2023/02/11 10:21:20;;;;;;;;;;;;;;;28.29;18.11;102408.63;5057388;28;2329;-32
2023/02/11 10:23:46;;;;;;;;;;;;;;;28.10;18.23;102406.84;5076050;28;1083;-31
2023/02/11 10:26:13;;;;;;;;;;;;;;;27.77;18.51;102396.44;5075460;28;1127;-31
2023/02/11 10:28:38;;;;;;;;;;;;;;;27.33;18.81;102391.53;5057734;28;1107;-35
2023/02/11 10:31:30;;;;;;;;;;;;;;;26.63;18.79;102386.09;5057477;28;1901;-32
2023/02/11 10:33:57;;;;;;;;;;;;;;;28.15;17.87;102401.84;5070960;28;1068;-30
2023/02/11 10:36:26;;;;;;;;;;;;;;;27.88;18.02;102384.56;5057670;28;1033;-29
2023/02/11 10:38:51;;;;;;;;;;;;;;;28.06;17.41;102384.63;5057447;28;1256;-32
2023/02/11 10:41:20;;;;;;;;;;;;;;;26.43;19.53;102381.66;5075377;28;1493;-30
2023/02/11 10:43:45;;;;;;;;;;;;;;;28.39;17.70;102383.38;5057695;28;1021;-34
2023/02/11 10:46:15;;;;;;;;;;;;;;;28.15;17.41;102380.19;5074643;28;1072;-34
2023/02/11 10:48:51;;;;;;;;;;;;;;;27.86;17.92;102379.31;5056894;28;1080;-31
2023/02/11 10:51:20;;;;;;;;;;;;;;;27.32;18.31;102368.22;5074931;28;2462;-32
2023/02/11 10:53:46;;;;;;;;;;;;;;;28.07;17.82;102358.44;5075272;28;1167;-34
2023/02/11 10:56:13;;;;;;;;;;;;;;;28.57;17.47;102362.59;5079168;28;1073;-29
2023/02/11 10:58:45;;;;;;;;;;;;;;;28.24;17.71;102348.69;5060586;28;938;-30
2023/02/11 11:01:10;;;;;;;;;;;;;;;28.23;17.37;102341.53;5061512;28;1027;-33
2023/02/11 11:03:37;;;;;;;;;;;;;;;28.38;17.98;102344.63;5061142;28;1020;-30
2023/02/11 11:06:04;;;;;;;;;;;;;;;28.89;17.27;102335.97;5078658;28;1083;-31
2023/02/11 11:08:55;;;;;;;;;;;;;;;28.55;17.48;102342.94;5079029;28;1190;-30
2023/02/11 11:11:21;;;;;;;;;;;;;;;27.79;18.06;102328.69;5067494;28;1901;-33
2023/02/11 11:13:52;;;;;;;;;;;;;;;28.40;17.71;102330.94;5078492;28;1003;-35
2023/02/11 11:16:18;;;;;;;;;;;;;;;28.71;17.51;102336.81;5078693;28;1032;-34
2023/02/11 11:18:44;;;;;;;;;;;;;;;28.54;17.24;102335.84;5078870;28;1028;-34
2023/02/11 11:21:35;;;;;;;;;;;;;;;28.57;17.42;102329.25;5076113;28;1060;-29
2023/02/11 11:24:02;;;;;;;;;;;;;;;26.80;19.03;102309.94;5065788;28;1775;-36
2023/02/11 11:26:47;;;;;;;;;;;;;;;28.70;17.28;102315.31;5078334;28;1070;-29
2023/02/11 11:29:15;;;;;;;;;;;;;;;28.51;17.44;102311.75;5078185;28;1269;-34
2023/02/11 11:31:46;;;;;;;;;;;;;;;28.39;17.43;102307.59;5078825;28;1965;-30
2023/02/11 11:34:20;;;;;;;;;;;;;;;28.49;17.85;102308.38;5077709;28;1028;-28
2023/02/11 11:36:45;;;;;;;;;;;;;;;28.95;17.08;102305.53;5060723;28;1534;-33
2023/02/11 11:39:18;;;;;;;;;;;;;;;28.72;17.11;102295.22;5078254;28;1063;-32
2023/02/11 11:41:48;;;;;;;;;;;;;;;28.56;17.44;102295.06;5078492;28;1160;-34
2023/02/11 11:44:22;;;;;;;;;;;;;;;28.75;17.28;102290.47;5060158;28;1134;-31
2023/02/11 11:46:48;;;;;;;;;;;;;;;28.95;17.08;102285.72;5077458;28;907;-34
2023/02/11 11:49:29;;;;;;;;;;;;;;;28.67;17.39;102283.13;5060218;28;1115;-29
2023/02/11 11:52:17;;;;;;;;;;;;;;;28.20;18.04;102279.63;5077634;28;1971;-29
2023/02/11 11:54:42;;;;;;;;;;;;;;;29.18;17.13;102263.53;5056987;28;1283;-29
2023/02/11 11:57:12;;;;;;;;;;;;;;;29.07;17.10;102267.38;5059684;28;1064;-30
2023/02/11 11:59:37;;;;;;;;;;;;;;;28.83;17.15;102256.19;5059867;28;1124;-29
2023/02/11 12:02:06;;;;;;;;;;;;;;;27.32;19.15;102265.53;5059877;28;1171;-31
2023/02/11 12:04:53;;;;;;;;;;;;;;;28.83;17.86;102266.16;5077185;28;995;-31
2023/02/11 12:07:28;;;;;;;;;;;;;;;29.03;17.25;102249.75;5059454;28;1001;-29
2023/02/11 12:09:59;;;;;;;;;;;;;;;29.00;17.09;102248.19;5077282;28;1017;-31
2023/02/11 12:12:26;;;;;;;;;;;;;;;28.53;18.23;102244.78;5059869;28;1971;-33
2023/02/11 12:14:54;;;;;;;;;;;;;;;29.60;16.94;102245.66;5059935;28;1052;-32
2023/02/11 12:17:46;;;;;;;;;;;;;;;29.16;16.99;102243.91;5077669;28;1012;-31
2023/02/11 12:20:20;;;;;;;;;;;;;;;28.19;18.38;102234.63;5045629;28;1107;-31
2023/02/11 12:22:51;;;;;;;;;;;;;;;29.34;17.24;102241.94;5065001;28;1764;-32
2023/02/11 12:25:27;;;;;;;;;;;;;;;29.49;16.68;102226.94;5077297;28;1087;-32
2023/02/11 12:28:05;;;;;;;;;;;;;;;29.29;16.86;102227.19;5077287;28;1043;-29
2023/02/11 12:30:38;;;;;;;;;;;;;;;28.80;17.57;102225.84;5077462;28;1150;-33
2023/02/11 12:33:21;;;;;;;;;;;;;;;29.97;16.68;102221.84;5077138;28;1976;-31
2023/02/11 12:35:47;;;;;;;;;;;;;;;30.22;16.41;102215.63;5071176;28;981;-29
2023/02/11 12:38:21;;;;;;;;;;;;;;;29.51;16.66;102219.50;5077060;28;1072;-30
2023/02/11 12:40:49;;;;;;;;;;;;;;;29.15;17.00;102221.38;5076508;28;1044;-30
2023/02/11 12:43:18;;;;;;;;;;;;;;;29.24;17.26;102215.97;5077134;28;1028;-32
2023/02/11 12:45:45;;;;;;;;;;;;;;;29.76;16.81;102212.28;5074189;28;1055;-30
2023/02/11 12:48:14;;;;;;;;;;;;;;;29.58;16.75;102215.94;5048284;28;1143;-30
2023/02/11 12:50:48;;;;;;;;;;;;;;;29.23;17.07;102209.69;5077057;28;1177;-31
2023/02/11 12:53:43;;;;;;;;;;;;;;;29.19;17.30;102209.19;5077240;28;2532;-28